Time;durP1;ratioP1;P1;durP2;ratioP2;P2;SDS_P1;SDS_P2;PMS_P1;PMS_P2;Temp;Humidity;BMP_temperature;BMP_pressure;BME280_temperature;BME280_humidity;BME280_pressure;Samples;Min_cycle;Max_cycle;Signal;HPM_P1;HPM_P2
2022/10/17 00:02:08;;;;;;;;;;;20.10;69.90;;;;;;5052872;28;19925;-63
2022/10/17 00:04:33;;;;;;;;;;;20.10;70.40;;;;;;5052597;28;20395;-63
2022/10/17 00:06:59;;;;;;;;;;;20.10;69.90;;;;;;5053295;28;19978;-64
2022/10/17 00:09:24;;;;;;;;;;;20.10;69.80;;;;;;5052863;28;19932;-63
2022/10/17 00:11:50;;;;;;;;;;;20.10;69.80;;;;;;5052331;28;20030;-64
2022/10/17 00:14:15;;;;;;;;;;;20.10;69.80;;;;;;5052519;28;19928;-63
2022/10/17 00:16:41;;;;;;;;;;;20.10;70.00;;;;;;5052769;28;20360;-64
2022/10/17 00:19:06;;;;;;;;;;;20.10;69.80;;;;;;5052357;28;19924;-64
2022/10/17 00:21:32;;;;;;;;;;;20.10;69.80;;;;;;5053156;28;20378;-64
2022/10/17 00:23:58;;;;;;;;;;;20.10;69.80;;;;;;5052086;28;19935;-63
2022/10/17 00:26:23;;;;;;;;;;;20.10;69.80;;;;;;5052580;28;20446;-64
2022/10/17 00:28:49;;;;;;;;;;;20.10;69.80;;;;;;5053019;28;20368;-64
2022/10/17 00:31:15;;;;;;;;;;;20.10;69.80;;;;;;5051560;28;20419;-63
2022/10/17 00:33:42;;;;;;;;;;;20.00;69.80;;;;;;5052927;28;19967;-63
2022/10/17 00:36:07;;;;;;;;;;;20.10;69.80;;;;;;5052139;28;19925;-63
2022/10/17 00:38:33;;;;;;;;;;;20.00;69.80;;;;;;5052128;28;19952;-63
2022/10/17 00:40:58;;;;;;;;;;;20.00;70.40;;;;;;5052896;28;19925;-64
2022/10/17 00:43:24;;;;;;;;;;;20.10;69.80;;;;;;5051892;28;20388;-64
2022/10/17 00:45:49;;;;;;;;;;;20.00;69.80;;;;;;5051771;28;19929;-63
2022/10/17 00:48:15;;;;;;;;;;;20.00;70.00;;;;;;5052683;28;20387;-64
2022/10/17 00:50:41;;;;;;;;;;;20.00;69.70;;;;;;5052755;28;19932;-63
2022/10/17 00:53:07;;;;;;;;;;;20.00;69.80;;;;;;5066690;28;19925;-63
2022/10/17 00:55:33;;;;;;;;;;;20.00;69.80;;;;;;5052525;28;19935;-64
2022/10/17 00:57:59;;;;;;;;;;;20.00;69.70;;;;;;5067876;28;19929;-63
2022/10/17 01:00:25;;;;;;;;;;;20.00;69.80;;;;;;5051420;28;19929;-63
2022/10/17 01:02:50;;;;;;;;;;;20.00;69.80;;;;;;5052898;28;20291;-63
2022/10/17 01:05:16;;;;;;;;;;;20.00;69.80;;;;;;5051887;28;19925;-63
2022/10/17 01:07:41;;;;;;;;;;;20.00;69.80;;;;;;5067393;28;20313;-63
2022/10/17 01:10:07;;;;;;;;;;;20.00;69.70;;;;;;5052022;28;19921;-63
2022/10/17 01:12:32;;;;;;;;;;;20.00;69.70;;;;;;5068105;28;19929;-63
2022/10/17 01:15:07;;;;;;;;;;;20.00;69.80;;;;;;5051531;28;20337;-64
2022/10/17 01:17:36;;;;;;;;;;;20.00;69.70;;;;;;5067949;28;19929;-63
2022/10/17 01:20:20;;;;;;;;;;;20.00;69.80;;;;;;5051168;28;20027;-64
2022/10/17 01:22:50;;;;;;;;;;;20.00;69.80;;;;;;5034904;28;20019;-63
2022/10/17 01:25:35;;;;;;;;;;;20.00;69.70;;;;;;5067490;28;19925;-64
2022/10/17 01:28:00;;;;;;;;;;;20.00;69.70;;;;;;5051528;28;19964;-64
2022/10/17 01:30:42;;;;;;;;;;;20.00;69.70;;;;;;5052136;28;19972;-63
2022/10/17 01:33:21;;;;;;;;;;;20.00;69.70;;;;;;5034367;28;19925;-63
2022/10/17 01:35:49;;;;;;;;;;;19.90;69.70;;;;;;5066604;28;19931;-64
2022/10/17 01:38:19;;;;;;;;;;;19.90;69.70;;;;;;5067651;28;20035;-63
2022/10/17 01:40:57;;;;;;;;;;;19.90;69.70;;;;;;5052259;28;19924;-64
2022/10/17 01:43:24;;;;;;;;;;;20.00;69.70;;;;;;5050811;28;19924;-64
2022/10/17 01:45:54;;;;;;;;;;;19.90;69.70;;;;;;5067382;28;19927;-63
2022/10/17 01:48:21;;;;;;;;;;;19.90;69.70;;;;;;5066270;28;20429;-63
2022/10/17 01:50:50;;;;;;;;;;;19.90;69.70;;;;;;5067250;28;19928;-63
2022/10/17 01:53:36;;;;;;;;;;;19.90;69.70;;;;;;5067324;28;19959;-64
2022/10/17 01:56:01;;;;;;;;;;;19.90;69.70;;;;;;5050824;28;20285;-63
2022/10/17 01:58:28;;;;;;;;;;;19.90;69.70;;;;;;5067311;28;19952;-63
2022/10/17 02:00:54;;;;;;;;;;;19.90;69.70;;;;;;5061607;28;19983;-63
2022/10/17 02:03:20;;;;;;;;;;;19.90;69.70;;;;;;5045087;28;19972;-63
2022/10/17 02:05:45;;;;;;;;;;;19.90;69.60;;;;;;5032765;28;19925;-63
2022/10/17 02:08:11;;;;;;;;;;;19.90;69.70;;;;;;5035490;28;19929;-63
2022/10/17 02:10:47;;;;;;;;;;;19.90;69.60;;;;;;5034668;28;20365;-64
2022/10/17 02:13:39;;;;;;;;;;;19.90;69.60;;;;;;5035116;28;19980;-63
2022/10/17 02:16:07;;;;;;;;;;;19.90;69.60;;;;;;5034098;28;19925;-63
2022/10/17 02:18:45;;;;;;;;;;;19.90;69.70;;;;;;5050211;28;19983;-66
2022/10/17 02:21:14;;;;;;;;;;;19.90;69.60;;;;;;5035589;28;19929;-63
2022/10/17 02:23:49;;;;;;;;;;;19.90;69.60;;;;;;5069756;28;20243;-64
2022/10/17 02:26:20;;;;;;;;;;;19.90;69.60;;;;;;5070289;28;20300;-63
2022/10/17 02:28:46;;;;;;;;;;;19.90;69.60;;;;;;5070716;28;19932;-64
2022/10/17 02:31:12;;;;;;;;;;;19.90;69.60;;;;;;5054251;28;19925;-64
2022/10/17 02:33:37;;;;;;;;;;;19.90;69.60;;;;;;5055423;28;19932;-64
2022/10/17 02:36:04;;;;;;;;;;;19.90;70.20;;;;;;5054582;28;20376;-63
2022/10/17 02:38:30;;;;;;;;;;;19.80;69.60;;;;;;5053998;28;20066;-63
2022/10/17 02:41:01;;;;;;;;;;;19.80;69.60;;;;;;5037001;28;20016;-63
2022/10/17 02:43:27;;;;;;;;;;;19.80;69.60;;;;;;5069760;28;19971;-63
2022/10/17 02:45:53;;;;;;;;;;;19.80;69.50;;;;;;5053794;28;19974;-64
2022/10/17 02:48:48;;;;;;;;;;;19.80;69.60;;;;;;5054668;28;20372;-63
2022/10/17 02:51:19;;;;;;;;;;;19.90;69.70;;;;;;5045239;28;19928;-63
2022/10/17 02:53:47;;;;;;;;;;;19.80;69.60;;;;;;5053787;28;19925;-64
2022/10/17 02:56:15;;;;;;;;;;;19.80;69.60;;;;;;5034563;28;19964;-63
2022/10/17 02:58:40;;;;;;;;;;;19.80;69.80;;;;;;5032670;28;20004;-64
2022/10/17 03:01:06;;;;;;;;;;;19.80;69.60;;;;;;5034256;28;20011;-63
2022/10/17 03:03:31;;;;;;;;;;;19.80;69.60;;;;;;5033543;28;19925;-64
2022/10/17 03:05:57;;;;;;;;;;;19.80;69.60;;;;;;5032270;28;19925;-63
2022/10/17 03:08:22;;;;;;;;;;;19.80;69.50;;;;;;5033085;28;19929;-64
2022/10/17 03:10:48;;;;;;;;;;;19.80;69.50;;;;;;5034590;28;19932;-64
2022/10/17 03:13:14;;;;;;;;;;;19.80;69.50;;;;;;5033068;28;19932;-65
2022/10/17 03:15:39;;;;;;;;;;;19.80;69.50;;;;;;5034570;28;19970;-64
2022/10/17 03:18:04;;;;;;;;;;;19.80;69.50;;;;;;5034198;28;19925;-64
2022/10/17 03:20:30;;;;;;;;;;;19.80;69.50;;;;;;5033055;28;19926;-64
2022/10/17 03:22:56;;;;;;;;;;;19.80;69.50;;;;;;5049456;28;19964;-64
2022/10/17 03:25:21;;;;;;;;;;;19.80;69.50;;;;;;5035717;28;20004;-64
2022/10/17 03:27:46;;;;;;;;;;;19.80;69.50;;;;;;5053358;28;20377;-64
2022/10/17 03:30:12;;;;;;;;;;;19.80;69.50;;;;;;5053971;28;19963;-65
2022/10/17 03:32:37;;;;;;;;;;;19.80;69.60;;;;;;5053915;28;20369;-63
2022/10/17 03:35:03;;;;;;;;;;;19.80;69.50;;;;;;5053544;28;20015;-63
2022/10/17 03:37:28;;;;;;;;;;;19.90;69.70;;;;;;5053491;28;19929;-63
2022/10/17 03:39:54;;;;;;;;;;;19.90;69.60;;;;;;5053946;28;19925;-63
2022/10/17 03:42:19;;;;;;;;;;;19.90;69.70;;;;;;5052574;28;20252;-66
2022/10/17 03:44:45;;;;;;;;;;;19.90;69.70;;;;;;5053126;28;19925;-64
2022/10/17 03:47:10;;;;;;;;;;;19.90;69.60;;;;;;5053422;28;19931;-63
2022/10/17 03:49:36;;;;;;;;;;;19.90;69.70;;;;;;5035306;28;19986;-63
2022/10/17 03:52:01;;;;;;;;;;;19.90;69.60;;;;;;5053558;28;19935;-63
2022/10/17 03:54:27;;;;;;;;;;;19.90;69.60;;;;;;5053212;28;20303;-63
2022/10/17 03:56:52;;;;;;;;;;;19.90;69.60;;;;;;5052490;28;20023;-63
2022/10/17 03:59:18;;;;;;;;;;;19.90;69.60;;;;;;5052896;28;19932;-63
2022/10/17 04:01:43;;;;;;;;;;;19.90;69.50;;;;;;5045846;28;20008;-63
2022/10/17 04:04:09;;;;;;;;;;;20.00;69.50;;;;;;5045697;28;19924;-64
2022/10/17 04:06:35;;;;;;;;;;;20.00;69.50;;;;;;5052652;28;19956;-64
2022/10/17 04:09:00;;;;;;;;;;;20.00;69.50;;;;;;5067481;28;19925;-63
2022/10/17 04:11:26;;;;;;;;;;;20.00;69.50;;;;;;5052476;28;19936;-63
2022/10/17 04:13:52;;;;;;;;;;;20.00;69.50;;;;;;5052576;28;19931;-63
2022/10/17 04:16:18;;;;;;;;;;;20.00;69.60;;;;;;5052204;28;19929;-63
2022/10/17 04:18:43;;;;;;;;;;;20.00;69.50;;;;;;5052645;28;19929;-64
2022/10/17 04:21:09;;;;;;;;;;;20.00;69.50;;;;;;5052345;28;19925;-63
2022/10/17 04:23:34;;;;;;;;;;;20.00;69.50;;;;;;5052291;28;19925;-64
2022/10/17 04:26:00;;;;;;;;;;;20.00;69.50;;;;;;5053144;28;19928;-63
2022/10/17 04:28:26;;;;;;;;;;;20.00;69.50;;;;;;5051941;28;19936;-63
2022/10/17 04:30:58;;;;;;;;;;;20.00;69.50;;;;;;5051973;28;19978;-63
2022/10/17 04:33:24;;;;;;;;;;;20.00;69.50;;;;;;5052400;28;19941;-63
2022/10/17 04:36:16;;;;;;;;;;;20.00;69.50;;;;;;5052544;28;19974;-63
2022/10/17 04:38:41;;;;;;;;;;;20.00;69.50;;;;;;5031097;28;19948;-63
2022/10/17 04:41:07;;;;;;;;;;;20.00;69.50;;;;;;5052047;28;19925;-63
2022/10/17 04:43:33;;;;;;;;;;;20.00;69.50;;;;;;5052520;28;19925;-63
2022/10/17 04:46:00;;;;;;;;;;;20.00;69.60;;;;;;5052369;28;19929;-64
2022/10/17 04:48:25;;;;;;;;;;;20.00;69.60;;;;;;5034787;28;20284;-63
2022/10/17 04:50:54;;;;;;;;;;;20.00;69.60;;;;;;5052968;28;20358;-63
2022/10/17 04:53:19;;;;;;;;;;;20.00;69.50;;;;;;5051480;28;19971;-63
2022/10/17 04:55:45;;;;;;;;;;;20.00;69.60;;;;;;5052474;28;19960;-63
2022/10/17 04:58:10;;;;;;;;;;;20.00;69.50;;;;;;5051471;28;19956;-63
2022/10/17 05:00:36;;;;;;;;;;;20.00;69.50;;;;;;5052651;28;19932;-63
2022/10/17 05:03:01;;;;;;;;;;;20.00;69.50;;;;;;5052559;28;19953;-63
2022/10/17 05:05:27;;;;;;;;;;;20.00;69.50;;;;;;5051670;28;19925;-63
2022/10/17 05:07:52;;;;;;;;;;;20.00;69.50;;;;;;5052656;28;20358;-63
2022/10/17 05:10:18;;;;;;;;;;;20.00;69.50;;;;;;5052233;28;19925;-63
2022/10/17 05:12:43;;;;;;;;;;;20.00;69.50;;;;;;5051787;28;19933;-63
2022/10/17 05:15:09;;;;;;;;;;;20.00;69.50;;;;;;5034023;28;19971;-63
2022/10/17 05:17:34;;;;;;;;;;;20.00;69.50;;;;;;5052395;28;19947;-63
2022/10/17 05:20:00;;;;;;;;;;;20.00;69.60;;;;;;5051688;28;20316;-63
2022/10/17 05:22:25;;;;;;;;;;;20.00;69.50;;;;;;5052172;28;20019;-63
2022/10/17 05:24:50;;;;;;;;;;;20.00;69.60;;;;;;5052091;28;20387;-63
2022/10/17 05:27:16;;;;;;;;;;;20.00;69.60;;;;;;5051235;28;19931;-63
2022/10/17 05:29:41;;;;;;;;;;;20.00;69.60;;;;;;5051918;28;20016;-63
2022/10/17 05:32:07;;;;;;;;;;;20.00;69.50;;;;;;5067117;28;19924;-63
2022/10/17 05:34:32;;;;;;;;;;;20.00;69.60;;;;;;5051477;28;20365;-63
2022/10/17 05:36:58;;;;;;;;;;;20.00;69.60;;;;;;5052071;28;19925;-63
2022/10/17 05:39:23;;;;;;;;;;;20.00;69.60;;;;;;5052087;28;19928;-63
2022/10/17 05:41:51;;;;;;;;;;;20.00;69.60;;;;;;5055255;28;19925;-63
2022/10/17 05:44:16;;;;;;;;;;;20.00;69.60;;;;;;5055406;28;20257;-63
2022/10/17 05:46:42;;;;;;;;;;;20.00;69.50;;;;;;5055947;28;19925;-63
2022/10/17 05:49:08;;;;;;;;;;;20.00;69.60;;;;;;5054598;28;20293;-64
2022/10/17 05:51:34;;;;;;;;;;;20.00;69.60;;;;;;5055882;28;19928;-64
2022/10/17 05:53:59;;;;;;;;;;;20.00;69.70;;;;;;5055615;28;19929;-62
2022/10/17 05:56:25;;;;;;;;;;;20.00;69.70;;;;;;5054591;28;20280;-63
2022/10/17 05:58:50;;;;;;;;;;;20.00;69.70;;;;;;5037624;28;19979;-65
2022/10/17 06:01:15;;;;;;;;;;;20.00;70.30;;;;;;5055270;28;19928;-64
2022/10/17 06:03:41;;;;;;;;;;;20.00;69.70;;;;;;5054658;28;20023;-63
2022/10/17 06:06:10;;;;;;;;;;;20.00;69.80;;;;;;5055229;28;19920;-64
2022/10/17 06:08:35;;;;;;;;;;;20.00;69.90;;;;;;5054611;28;19983;-64
2022/10/17 06:11:01;;;;;;;;;;;20.00;70.20;;;;;;5055379;28;19972;-63
2022/10/17 06:13:26;;;;;;;;;;;20.00;70.20;;;;;;5055076;28;19928;-63
2022/10/17 06:15:52;;;;;;;;;;;20.10;70.30;;;;;;5054557;28;19925;-63
2022/10/17 06:18:17;;;;;;;;;;;20.10;70.30;;;;;;5054854;28;19925;-62
2022/10/17 06:20:43;;;;;;;;;;;20.10;70.30;;;;;;5054134;28;20457;-63
2022/10/17 06:23:08;;;;;;;;;;;20.10;70.30;;;;;;5052984;28;19932;-63
2022/10/17 06:25:34;;;;;;;;;;;20.10;70.40;;;;;;5054523;28;19983;-63
2022/10/17 06:27:59;;;;;;;;;;;20.10;70.40;;;;;;5054821;28;19936;-63
2022/10/17 06:30:25;;;;;;;;;;;20.10;70.50;;;;;;5054168;28;20360;-63
2022/10/17 06:32:51;;;;;;;;;;;20.10;70.40;;;;;;5054726;28;19979;-63
2022/10/17 06:35:16;;;;;;;;;;;20.20;70.50;;;;;;5054599;28;19925;-63
2022/10/17 06:37:42;;;;;;;;;;;20.20;70.50;;;;;;5053974;28;19976;-63
2022/10/17 06:40:09;;;;;;;;;;;20.20;70.50;;;;;;5054749;28;19924;-63
2022/10/17 06:42:34;;;;;;;;;;;20.20;70.50;;;;;;5054802;28;19925;-63
2022/10/17 06:45:00;;;;;;;;;;;20.20;70.50;;;;;;5054328;28;19954;-63
2022/10/17 06:47:25;;;;;;;;;;;20.20;70.60;;;;;;5069895;28;19935;-63
2022/10/17 06:49:51;;;;;;;;;;;20.30;70.60;;;;;;5054704;28;19948;-62
2022/10/17 06:52:16;;;;;;;;;;;20.30;70.60;;;;;;5053064;28;19925;-62
2022/10/17 06:54:43;;;;;;;;;;;20.30;70.60;;;;;;5054460;28;20368;-62
2022/10/17 06:57:08;;;;;;;;;;;20.30;70.60;;;;;;5054284;28;19928;-62
2022/10/17 06:59:34;;;;;;;;;;;20.30;70.60;;;;;;5053584;28;19974;-62
2022/10/17 07:01:59;;;;;;;;;;;20.30;70.70;;;;;;5054469;28;20683;-62
2022/10/17 07:04:26;;;;;;;;;;;20.30;70.70;;;;;;5036128;28;19933;-62
2022/10/17 07:06:51;;;;;;;;;;;20.30;70.60;;;;;;5053703;28;19925;-62
2022/10/17 07:09:17;;;;;;;;;;;20.40;70.80;;;;;;5053981;28;20024;-62
2022/10/17 07:11:43;;;;;;;;;;;20.30;70.70;;;;;;5053623;28;19925;-64
2022/10/17 07:14:08;;;;;;;;;;;20.40;70.80;;;;;;5053812;28;19948;-63
2022/10/17 07:16:34;;;;;;;;;;;20.40;70.70;;;;;;5054371;28;19929;-62
2022/10/17 07:18:59;;;;;;;;;;;20.40;70.70;;;;;;5052984;28;19986;-62
2022/10/17 07:21:25;;;;;;;;;;;20.40;70.70;;;;;;5053567;28;19929;-62
2022/10/17 07:23:50;;;;;;;;;;;20.40;70.60;;;;;;5053822;28;20388;-63
2022/10/17 07:26:16;;;;;;;;;;;20.40;70.70;;;;;;5052893;28;19925;-62
2022/10/17 07:28:42;;;;;;;;;;;20.40;70.70;;;;;;5053716;28;20380;-63
2022/10/17 07:31:08;;;;;;;;;;;20.40;71.20;;;;;;5053187;28;19925;-63
2022/10/17 07:33:34;;;;;;;;;;;20.40;70.60;;;;;;5052643;28;19929;-63
2022/10/17 07:35:59;;;;;;;;;;;20.40;70.70;;;;;;5053420;28;19936;-63
2022/10/17 07:38:25;;;;;;;;;;;20.50;70.80;;;;;;5053387;28;19940;-63
2022/10/17 07:40:54;;;;;;;;;;;20.50;70.70;;;;;;5052913;28;19925;-63
2022/10/17 07:43:20;;;;;;;;;;;20.50;70.70;;;;;;5053314;28;19973;-62
2022/10/17 07:45:45;;;;;;;;;;;20.50;70.70;;;;;;5053370;28;19987;-63
2022/10/17 07:48:10;;;;;;;;;;;20.50;70.70;;;;;;5052262;28;19932;-62
2022/10/17 07:50:36;;;;;;;;;;;20.50;70.80;;;;;;5053542;28;20356;-64
2022/10/17 07:53:01;;;;;;;;;;;20.50;70.70;;;;;;5053181;28;20015;-63
2022/10/17 07:55:27;;;;;;;;;;;20.50;70.80;;;;;;5052364;28;20414;-64
2022/10/17 07:57:52;;;;;;;;;;;20.50;70.80;;;;;;5053254;28;20008;-62
2022/10/17 08:00:18;;;;;;;;;;;20.60;70.80;;;;;;5052922;28;19925;-63
2022/10/17 08:02:43;;;;;;;;;;;20.60;70.80;;;;;;5051938;28;19929;-63
2022/10/17 08:05:09;;;;;;;;;;;20.60;70.80;;;;;;5052392;28;19924;-63
2022/10/17 08:07:34;;;;;;;;;;;20.60;70.80;;;;;;5035000;28;19921;-63
2022/10/17 08:10:00;;;;;;;;;;;20.60;70.90;;;;;;5052174;28;20430;-63
2022/10/17 08:12:25;;;;;;;;;;;20.60;70.90;;;;;;5052516;28;19975;-63
2022/10/17 08:14:51;;;;;;;;;;;20.60;70.80;;;;;;5053100;28;19932;-62
2022/10/17 08:17:16;;;;;;;;;;;20.50;70.80;;;;;;5051641;28;20379;-63
2022/10/17 08:19:42;;;;;;;;;;;20.60;70.90;;;;;;5052619;28;19931;-63
2022/10/17 08:22:07;;;;;;;;;;;20.50;70.90;;;;;;5051885;28;19940;-63
2022/10/17 08:24:33;;;;;;;;;;;20.60;70.90;;;;;;5052558;28;20022;-63
2022/10/17 08:26:59;;;;;;;;;;;20.50;70.90;;;;;;5035068;28;19929;-63
2022/10/17 08:29:25;;;;;;;;;;;20.60;70.90;;;;;;5051559;28;19936;-63
2022/10/17 08:31:51;;;;;;;;;;;20.50;70.90;;;;;;5052366;28;19928;-62
2022/10/17 08:34:17;;;;;;;;;;;20.50;70.90;;;;;;5052174;28;19932;-62
2022/10/17 08:36:42;;;;;;;;;;;20.50;71.00;;;;;;5051466;28;19925;-63
2022/10/17 08:39:08;;;;;;;;;;;20.60;71.10;;;;;;5034391;28;19925;-63
2022/10/17 08:41:39;;;;;;;;;;;20.50;71.60;;;;;;5052584;28;19929;-63
2022/10/17 08:44:04;;;;;;;;;;;20.50;71.00;;;;;;5051944;28;19929;-62
2022/10/17 08:46:31;;;;;;;;;;;20.50;71.10;;;;;;5052352;28;20233;-62
2022/10/17 08:48:56;;;;;;;;;;;20.50;71.10;;;;;;5068036;28;19968;-62
2022/10/17 08:51:23;;;;;;;;;;;20.50;71.10;;;;;;5066983;28;19975;-62
2022/10/17 08:53:51;;;;;;;;;;;20.50;71.10;;;;;;5067316;28;19929;-62
2022/10/17 08:56:18;;;;;;;;;;;20.50;71.20;;;;;;5052041;28;19925;-62
2022/10/17 08:58:44;;;;;;;;;;;20.50;71.20;;;;;;5067178;28;19982;-62
2022/10/17 09:01:31;;;;;;;;;;;20.50;71.20;;;;;;5052158;28;19925;-62
2022/10/17 09:03:56;;;;;;;;;;;20.50;71.20;;;;;;5052293;28;19928;-62
2022/10/17 09:06:28;;;;;;;;;;;20.60;71.30;;;;;;5050922;28;19986;-62
2022/10/17 09:08:54;;;;;;;;;;;20.50;71.30;;;;;;5066455;28;20117;-67
2022/10/17 09:11:22;;;;;;;;;;;20.50;71.20;;;;;;5040510;28;19933;-62
2022/10/17 09:13:53;;;;;;;;;;;20.50;71.30;;;;;;5049034;28;19932;-62
2022/10/17 09:16:25;;;;;;;;;;;20.50;71.20;;;;;;5041726;28;19931;-62
2022/10/17 09:18:58;;;;;;;;;;;20.50;71.20;;;;;;5053170;28;20372;-62
2022/10/17 09:21:32;;;;;;;;;;;20.50;71.20;;;;;;5070703;28;19929;-62
2022/10/17 09:24:02;;;;;;;;;;;20.50;71.20;;;;;;5071558;28;20023;-62
2022/10/17 09:26:28;;;;;;;;;;;20.50;71.20;;;;;;5070334;28;19925;-62
2022/10/17 09:28:58;;;;;;;;;;;20.40;71.20;;;;;;5056388;28;19932;-63
2022/10/17 09:31:25;;;;;;;;;;;20.40;71.20;;;;;;5071452;28;19932;-63
2022/10/17 09:33:53;;;;;;;;;;;20.50;71.90;;;;;;5056021;28;20028;-63
2022/10/17 09:36:19;;;;;;;;;;;20.40;71.20;;;;;;5054885;28;19960;-62
2022/10/17 09:38:52;;;;;;;;;;;20.40;71.30;;;;;;5071182;28;19980;-62
2022/10/17 09:41:33;;;;;;;;;;;20.40;71.30;;;;;;5054267;28;20367;-62
2022/10/17 09:43:59;;;;;;;;;;;20.50;71.30;;;;;;5052112;28;20307;-62
2022/10/17 09:46:26;;;;;;;;;;;20.40;71.30;;;;;;5069819;28;20376;-63
2022/10/17 09:49:00;;;;;;;;;;;20.40;71.40;;;;;;5071290;28;20398;-62
2022/10/17 09:51:25;;;;;;;;;;;20.40;71.40;;;;;;5070534;28;19928;-62
2022/10/17 09:53:53;;;;;;;;;;;20.50;71.40;;;;;;5070598;28;19925;-62
2022/10/17 09:56:18;;;;;;;;;;;20.50;71.40;;;;;;5055240;28;19978;-61
2022/10/17 09:58:45;;;;;;;;;;;20.50;71.50;;;;;;5055334;28;19929;-62
2022/10/17 10:01:29;;;;;;;;;;;20.50;71.50;;;;;;5054329;28;19925;-61
2022/10/17 10:04:07;;;;;;;;;;;20.50;71.50;;;;;;5055635;28;19937;-61
2022/10/17 10:06:32;;;;;;;;;;;20.50;71.50;;;;;;5055363;28;19925;-61
2022/10/17 10:08:58;;;;;;;;;;;20.50;71.50;;;;;;5054672;28;19959;-61
2022/10/17 10:11:42;;;;;;;;;;;20.40;71.50;;;;;;5055248;28;19975;-61
2022/10/17 10:14:11;;;;;;;;;;;20.40;71.60;;;;;;5055031;28;19925;-61
2022/10/17 10:16:40;;;;;;;;;;;20.40;71.60;;;;;;5054177;28;19971;-61
2022/10/17 10:19:05;;;;;;;;;;;20.50;71.60;;;;;;5070368;28;19925;-61
2022/10/17 10:21:31;;;;;;;;;;;20.40;71.60;;;;;;5054734;28;19979;-61
2022/10/17 10:24:02;;;;;;;;;;;20.40;71.60;;;;;;5054232;28;19928;-62
2022/10/17 10:26:30;;;;;;;;;;;20.40;71.60;;;;;;5053612;28;19975;-61
2022/10/17 10:28:57;;;;;;;;;;;20.40;71.60;;;;;;5069716;28;20361;-61
2022/10/17 10:31:27;;;;;;;;;;;20.40;71.70;;;;;;5069974;28;20002;-61
2022/10/17 10:33:52;;;;;;;;;;;20.40;71.70;;;;;;5053589;28;20356;-61
2022/10/17 10:36:21;;;;;;;;;;;20.40;71.70;;;;;;5053547;28;19932;-62
2022/10/17 10:38:54;;;;;;;;;;;20.40;71.80;;;;;;5069527;28;19931;-62
2022/10/17 10:41:20;;;;;;;;;;;20.40;71.80;;;;;;5053723;28;20467;-61
2022/10/17 10:43:46;;;;;;;;;;;20.40;71.80;;;;;;5053992;28;19925;-61
2022/10/17 10:46:18;;;;;;;;;;;20.40;71.80;;;;;;5053888;28;19925;-62
2022/10/17 10:48:58;;;;;;;;;;;20.40;71.80;;;;;;5055173;28;19924;-62
2022/10/17 10:51:29;;;;;;;;;;;20.40;71.80;;;;;;5036064;28;19974;-63
2022/10/17 10:53:54;;;;;;;;;;;20.30;71.70;;;;;;5070483;28;19929;-63
2022/10/17 10:56:21;;;;;;;;;;;20.40;71.80;;;;;;5054331;28;19925;-63
2022/10/17 10:58:56;;;;;;;;;;;20.30;71.80;;;;;;5069601;28;19931;-63
2022/10/17 11:01:27;;;;;;;;;;;20.30;71.70;;;;;;5054680;28;19978;-63
2022/10/17 11:04:03;;;;;;;;;;;20.30;71.80;;;;;;5054336;28;19925;-63
2022/10/17 11:06:30;;;;;;;;;;;20.30;71.80;;;;;;5054267;28;20308;-63
2022/10/17 11:09:19;;;;;;;;;;;20.30;71.70;;;;;;5054947;28;19994;-63
2022/10/17 11:11:46;;;;;;;;;;;20.30;71.80;;;;;;5047819;28;19929;-63
2022/10/17 11:14:30;;;;;;;;;;;20.30;71.80;;;;;;5069750;28;20395;-63
2022/10/17 11:17:05;;;;;;;;;;;20.30;71.80;;;;;;5054742;28;19931;-63
2022/10/17 11:19:33;;;;;;;;;;;20.30;71.80;;;;;;5053889;28;19925;-63
2022/10/17 11:22:04;;;;;;;;;;;20.30;71.80;;;;;;5069749;28;19970;-63
2022/10/17 11:24:35;;;;;;;;;;;20.30;71.80;;;;;;5069638;28;19931;-63
2022/10/17 11:27:02;;;;;;;;;;;20.40;71.90;;;;;;5069203;28;20020;-63
2022/10/17 11:29:28;;;;;;;;;;;20.30;71.90;;;;;;5053757;28;19924;-63
2022/10/17 11:31:54;;;;;;;;;;;20.30;71.90;;;;;;5069141;28;20007;-63
2022/10/17 11:34:24;;;;;;;;;;;20.40;71.90;;;;;;5068951;28;20024;-62
2022/10/17 11:36:50;;;;;;;;;;;20.30;71.80;;;;;;5069305;28;20273;-63
2022/10/17 11:39:17;;;;;;;;;;;20.40;71.80;;;;;;5068402;28;20427;-63
2022/10/17 11:41:52;;;;;;;;;;;20.40;71.90;;;;;;5052652;28;20363;-63
2022/10/17 11:44:22;;;;;;;;;;;20.40;72.00;;;;;;5051482;28;21748;-63
2022/10/17 11:46:49;;;;;;;;;;;20.40;71.90;;;;;;5053537;28;20019;-63
2022/10/17 11:49:15;;;;;;;;;;;20.40;71.90;;;;;;5069078;28;19975;-63
2022/10/17 11:51:47;;;;;;;;;;;20.40;71.90;;;;;;5069418;28;19932;-62
2022/10/17 11:54:15;;;;;;;;;;;20.40;72.00;;;;;;5052810;28;20011;-63
2022/10/17 11:56:46;;;;;;;;;;;20.40;72.00;;;;;;5054006;28;19970;-63
2022/10/17 11:59:18;;;;;;;;;;;20.40;72.10;;;;;;5053664;28;19978;-62
2022/10/17 12:01:46;;;;;;;;;;;20.50;72.10;;;;;;5053045;28;19978;-62
2022/10/17 12:04:20;;;;;;;;;;;20.50;72.10;;;;;;5068844;28;19960;-63
2022/10/17 12:06:59;;;;;;;;;;;20.40;72.10;;;;;;5053787;28;19932;-63
2022/10/17 12:09:28;;;;;;;;;;;20.50;72.10;;;;;;5051977;28;19929;-63
2022/10/17 12:12:00;;;;;;;;;;;20.50;72.00;;;;;;5053658;28;19925;-63
2022/10/17 12:14:41;;;;;;;;;;;20.50;72.10;;;;;;5051147;28;20439;-61
2022/10/17 12:17:26;;;;;;;;;;;20.50;72.00;;;;;;5053098;28;19924;-61
2022/10/17 12:19:51;;;;;;;;;;;20.50;72.00;;;;;;5053594;28;19925;-61
2022/10/17 12:22:21;;;;;;;;;;;20.50;72.10;;;;;;5067824;28;19925;-61
2022/10/17 12:24:54;;;;;;;;;;;20.50;72.00;;;;;;5068521;28;20292;-62
2022/10/17 12:27:22;;;;;;;;;;;20.50;72.10;;;;;;5068537;28;19925;-62
2022/10/17 12:29:48;;;;;;;;;;;20.50;72.10;;;;;;5052272;28;19925;-63
2022/10/17 12:32:13;;;;;;;;;;;20.50;72.20;;;;;;5052789;28;19936;-61
2022/10/17 12:34:39;;;;;;;;;;;20.50;72.30;;;;;;5053303;28;19932;-59
2022/10/17 12:37:07;;;;;;;;;;;20.50;72.40;;;;;;5052223;28;20380;-60
2022/10/17 12:39:33;;;;;;;;;;;20.60;72.40;;;;;;5068651;28;19971;-59
2022/10/17 12:41:58;;;;;;;;;;;20.50;72.30;;;;;;5053280;28;19983;-61
2022/10/17 12:44:24;;;;;;;;;;;20.60;72.40;;;;;;5051539;28;20407;-60
2022/10/17 12:46:50;;;;;;;;;;;20.60;72.50;;;;;;5052102;28;19931;-59
2022/10/17 12:49:34;;;;;;;;;;;20.60;72.60;;;;;;5051809;28;20405;-60
2022/10/17 12:52:05;;;;;;;;;;;20.60;72.70;;;;;;5052961;28;19925;-60
2022/10/17 12:54:31;;;;;;;;;;;20.60;72.70;;;;;;5052787;28;19925;-59
2022/10/17 12:56:56;;;;;;;;;;;20.60;72.70;;;;;;5051952;28;19932;-59
2022/10/17 12:59:25;;;;;;;;;;;20.70;72.80;;;;;;5052619;28;19947;-59
2022/10/17 13:01:51;;;;;;;;;;;20.70;72.80;;;;;;5052658;28;19935;-59
2022/10/17 13:04:17;;;;;;;;;;;20.70;72.80;;;;;;5052152;28;20070;-59
2022/10/17 13:06:44;;;;;;;;;;;20.70;72.70;;;;;;5053033;28;20062;-59
2022/10/17 13:09:21;;;;;;;;;;;20.70;72.80;;;;;;5052537;28;19933;-62
2022/10/17 13:11:47;;;;;;;;;;;20.70;72.80;;;;;;5052018;28;20335;-59
2022/10/17 13:14:13;;;;;;;;;;;20.70;72.80;;;;;;5052276;28;19927;-60
2022/10/17 13:16:39;;;;;;;;;;;20.70;72.90;;;;;;5034993;28;19925;-60
2022/10/17 13:19:12;;;;;;;;;;;20.70;72.90;;;;;;5052043;28;19936;-60
2022/10/17 13:21:37;;;;;;;;;;;20.70;73.00;;;;;;5051822;28;19930;-59
2022/10/17 13:24:19;;;;;;;;;;;20.70;73.00;;;;;;5052751;28;19929;-60
2022/10/17 13:26:44;;;;;;;;;;;20.70;72.90;;;;;;5052141;28;19933;-60
2022/10/17 13:29:11;;;;;;;;;;;20.70;73.00;;;;;;5052200;28;19932;-59
2022/10/17 13:31:37;;;;;;;;;;;20.70;73.00;;;;;;5052145;28;19931;-59
2022/10/17 13:34:14;;;;;;;;;;;20.70;73.00;;;;;;5052509;28;19924;-59
2022/10/17 13:36:39;;;;;;;;;;;20.70;73.00;;;;;;5052396;28;19981;-60
2022/10/17 13:39:06;;;;;;;;;;;20.70;73.00;;;;;;5034011;28;19933;-59
2022/10/17 13:41:33;;;;;;;;;;;20.70;73.10;;;;;;5052630;28;19925;-60
2022/10/17 13:43:59;;;;;;;;;;;20.70;73.00;;;;;;5052587;28;19932;-60
2022/10/17 13:46:28;;;;;;;;;;;20.70;73.00;;;;;;5033677;28;19928;-60
2022/10/17 13:48:54;;;;;;;;;;;20.70;73.00;;;;;;5034448;28;20399;-60
2022/10/17 13:51:20;;;;;;;;;;;20.70;73.00;;;;;;5034408;28;19929;-60
2022/10/17 13:53:45;;;;;;;;;;;20.70;73.10;;;;;;5051757;28;19925;-60
2022/10/17 13:56:11;;;;;;;;;;;20.70;73.10;;;;;;5034085;28;19932;-60
2022/10/17 13:58:56;;;;;;;;;;;20.70;73.10;;;;;;5051432;28;20471;-59
2022/10/17 14:01:22;;;;;;;;;;;20.70;73.10;;;;;;5053282;28;19925;-59
2022/10/17 14:03:47;;;;;;;;;;;20.70;73.10;;;;;;5055879;28;20361;-59
2022/10/17 14:06:19;;;;;;;;;;;20.70;73.10;;;;;;5055582;28;20388;-59
2022/10/17 14:08:46;;;;;;;;;;;20.70;73.70;;;;;;5037643;28;19929;-59
2022/10/17 14:11:12;;;;;;;;;;;20.70;73.20;;;;;;5038015;28;19982;-59
2022/10/17 14:13:37;;;;;;;;;;;20.70;73.10;;;;;;5038115;28;19925;-60
2022/10/17 14:16:03;;;;;;;;;;;20.70;73.10;;;;;;5042474;28;19931;-59
2022/10/17 14:18:29;;;;;;;;;;;20.70;73.20;;;;;;5051969;28;19972;-59
2022/10/17 14:20:55;;;;;;;;;;;20.70;73.20;;;;;;5039418;28;19933;-59